createdAt,value
2023-04-23T00:02:00.697Z,24.00
2023-04-23T00:04:29.970Z,23.90
2023-04-23T00:06:59.867Z,23.90
2023-04-23T00:09:32.541Z,23.90
2023-04-23T00:12:02.987Z,23.90
2023-04-23T00:14:31.553Z,23.90
2023-04-23T00:16:59.762Z,23.90
2023-04-23T00:19:27.870Z,23.80
2023-04-23T00:21:56.000Z,23.80
2023-04-23T00:24:24.107Z,23.80
2023-04-23T00:26:53.047Z,23.80
2023-04-23T00:29:22.495Z,23.80
2023-04-23T00:31:50.641Z,23.70
2023-04-23T00:34:18.770Z,23.70
2023-04-23T00:36:46.886Z,23.70
2023-04-23T00:39:15.200Z,23.70
2023-04-23T00:41:44.418Z,23.70
2023-04-23T00:44:13.097Z,23.60
2023-04-23T00:46:43.330Z,23.60
2023-04-23T00:49:12.104Z,23.60
2023-04-23T00:51:40.537Z,23.60
2023-04-23T00:54:08.679Z,23.60
2023-04-23T00:56:37.077Z,23.60
2023-04-23T00:59:05.370Z,23.50
2023-04-23T01:01:33.928Z,23.50
2023-04-23T01:04:03.841Z,23.50
2023-04-23T01:06:32.205Z,23.50
2023-04-23T01:09:00.469Z,23.50
2023-04-23T01:11:28.732Z,23.40
2023-04-23T01:13:57.450Z,23.40
2023-04-23T01:16:25.651Z,23.40
2023-04-23T01:18:53.773Z,23.40
2023-04-23T01:21:23.795Z,23.30
2023-04-23T01:23:53.270Z,23.30
2023-04-23T01:26:22.269Z,23.30
2023-04-23T01:28:51.280Z,23.30
2023-04-23T01:31:19.845Z,23.20
2023-04-23T01:33:48.366Z,23.20
2023-04-23T01:36:16.726Z,23.20
2023-04-23T01:38:44.856Z,23.20
2023-04-23T01:41:14.438Z,23.20
2023-04-23T01:43:43.549Z,23.10
2023-04-23T01:46:12.338Z,23.10
2023-04-23T01:48:40.715Z,23.10
2023-04-23T01:51:09.095Z,23.10
2023-04-23T01:53:37.176Z,23.10
2023-04-23T01:56:06.228Z,23.00
2023-04-23T01:58:35.755Z,23.10
2023-04-23T02:01:03.994Z,23.00
2023-04-23T02:03:33.996Z,23.00
2023-04-23T02:06:02.412Z,23.00
2023-04-23T02:08:30.551Z,23.00
2023-04-23T02:10:58.684Z,22.90
2023-04-23T02:13:26.750Z,22.90
2023-04-23T02:15:56.253Z,22.90
2023-04-23T02:18:24.342Z,22.90
2023-04-23T02:20:52.475Z,22.60
2023-04-23T02:23:20.539Z,22.80
2023-04-23T02:25:48.633Z,22.80
2023-04-23T02:28:16.714Z,22.80
2023-04-23T02:30:46.730Z,22.70
2023-04-23T02:33:16.178Z,22.70
2023-04-23T02:35:44.304Z,22.70
2023-04-23T02:38:12.435Z,22.70
2023-04-23T02:40:40.535Z,22.70
2023-04-23T02:43:08.669Z,22.70
2023-04-23T02:45:36.780Z,22.70
2023-04-23T02:48:05.099Z,22.60
2023-04-23T02:50:35.183Z,22.60
2023-04-23T02:53:03.298Z,22.60
2023-04-23T02:55:32.080Z,22.60
2023-04-23T02:58:01.046Z,22.60
2023-04-23T03:00:29.537Z,22.60
2023-04-23T03:02:57.751Z,22.60
2023-04-23T03:05:26.003Z,22.50
2023-04-23T03:07:55.455Z,22.60
2023-04-23T03:10:23.579Z,22.60
2023-04-23T03:12:51.666Z,22.50
2023-04-23T03:15:19.897Z,22.60
2023-04-23T03:17:48.400Z,22.50
2023-04-23T03:20:16.584Z,22.50
2023-04-23T03:22:44.643Z,22.50
2023-04-23T03:25:14.107Z,22.50
2023-04-23T03:27:42.478Z,22.50
2023-04-23T03:30:11.608Z,22.50
2023-04-23T03:32:39.977Z,22.50
2023-04-23T03:35:09.697Z,22.50
2023-04-23T03:37:37.873Z,22.40
2023-04-23T03:40:07.735Z,22.40
2023-04-23T03:42:37.397Z,22.40
2023-04-23T03:45:06.560Z,22.40
2023-04-23T03:47:34.698Z,22.40
2023-04-23T03:50:02.819Z,22.40
2023-04-23T03:52:31.019Z,22.40
2023-04-23T03:54:59.153Z,22.40
2023-04-23T03:57:27.430Z,22.30
2023-04-23T03:59:56.882Z,22.30
2023-04-23T04:02:25.119Z,22.30
2023-04-23T04:04:55.131Z,22.30
2023-04-23T04:07:23.509Z,22.30
2023-04-23T04:09:51.562Z,22.30
2023-04-23T04:12:19.681Z,22.30
2023-04-23T04:14:47.773Z,22.30
2023-04-23T04:17:17.238Z,22.20
2023-04-23T04:19:45.376Z,22.20
2023-04-23T04:22:13.538Z,22.30
2023-04-23T04:24:42.231Z,22.50
2023-04-23T04:27:11.724Z,22.50
2023-04-23T04:29:40.851Z,22.50
2023-04-23T04:32:09.654Z,22.50
2023-04-23T04:34:40.032Z,22.40
2023-04-23T04:37:10.029Z,22.40
2023-04-23T04:39:38.163Z,22.40
2023-04-23T04:42:07.374Z,22.30
2023-04-23T04:44:38.117Z,22.30
2023-04-23T04:47:07.373Z,22.10
2023-04-23T04:49:36.001Z,22.10
2023-04-23T04:52:05.658Z,22.10
2023-04-23T04:54:33.729Z,22.10
2023-04-23T04:57:02.446Z,22.10
2023-04-23T04:59:30.572Z,22.00
2023-04-23T05:01:59.734Z,22.00
2023-04-23T05:04:27.994Z,22.00
2023-04-23T05:06:56.496Z,22.00
2023-04-23T05:09:27.132Z,22.00
2023-04-23T05:11:55.856Z,22.10
2023-04-23T05:14:26.027Z,22.00
2023-04-23T05:16:54.236Z,22.10
2023-04-23T05:19:22.326Z,22.10
2023-04-23T05:21:50.494Z,22.00
2023-04-23T05:24:18.586Z,22.10
2023-04-23T05:26:48.069Z,22.00
2023-04-23T05:29:19.302Z,22.10
2023-04-23T05:31:47.744Z,22.10
2023-04-23T05:34:15.915Z,22.10
2023-04-23T05:36:44.434Z,22.10
2023-04-23T05:39:12.524Z,22.10
2023-04-23T05:41:40.755Z,22.10
2023-04-23T05:44:10.203Z,22.10
2023-04-23T05:46:38.766Z,22.20
2023-04-23T05:49:06.829Z,22.20
2023-04-23T05:51:34.946Z,22.20
2023-04-23T05:54:03.050Z,22.30
2023-04-23T05:56:31.174Z,22.30
2023-04-23T05:58:59.290Z,22.40
2023-04-23T06:01:28.814Z,22.50
2023-04-23T06:03:57.221Z,22.70
2023-04-23T06:06:25.547Z,22.70
2023-04-23T06:08:53.600Z,22.80
2023-04-23T06:11:22.567Z,22.90
2023-04-23T06:13:50.669Z,22.90
2023-04-23T06:16:18.807Z,22.90
2023-04-23T06:18:48.267Z,22.90
2023-04-23T06:21:18.039Z,23.00
2023-04-23T06:23:46.746Z,22.90
2023-04-23T06:26:15.052Z,23.00
2023-04-23T06:28:43.407Z,23.00
2023-04-23T06:31:11.698Z,23.00
2023-04-23T06:33:39.849Z,22.90
2023-04-23T06:36:11.081Z,22.90
2023-04-23T06:38:39.422Z,22.90
2023-04-23T06:41:08.539Z,23.00
2023-04-23T06:43:36.621Z,23.10
2023-04-23T06:46:04.708Z,23.20
2023-04-23T06:48:32.820Z,23.30
2023-04-23T06:51:00.981Z,23.50
2023-04-23T06:53:30.461Z,23.70
2023-04-23T06:55:58.606Z,23.80
2023-04-23T06:58:31.205Z,24.00
2023-04-23T07:01:01.025Z,24.10
2023-04-23T07:03:29.048Z,24.20
2023-04-23T07:05:57.195Z,24.40
2023-04-23T07:08:25.330Z,24.50
2023-04-23T07:10:54.953Z,24.70
2023-04-23T07:13:24.070Z,24.80
2023-04-23T07:15:52.202Z,24.90
2023-04-23T07:18:20.354Z,25.00
2023-04-23T07:20:48.746Z,25.20
2023-04-23T07:23:16.899Z,25.30
2023-04-23T07:25:45.021Z,25.50
2023-04-23T07:28:14.498Z,25.50
2023-04-23T07:30:42.605Z,25.50
2023-04-23T07:33:10.756Z,25.50
2023-04-23T07:35:38.864Z,25.70
2023-04-23T07:38:07.047Z,25.80
2023-04-23T07:40:35.241Z,26.10
2023-04-23T07:43:03.400Z,26.30
2023-04-23T07:45:32.866Z,26.50
2023-04-23T07:48:02.339Z,26.70
2023-04-23T07:50:30.706Z,26.90
2023-04-23T07:52:58.773Z,27.10
2023-04-23T07:55:26.876Z,27.30
2023-04-23T07:57:54.963Z,27.50
2023-04-23T08:00:23.222Z,27.70
2023-04-23T08:02:54.361Z,28.00
2023-04-23T08:05:22.749Z,28.00
2023-04-23T08:07:50.876Z,28.10
2023-04-23T08:10:18.979Z,28.30
2023-04-23T08:12:47.103Z,28.50
2023-04-23T08:15:15.525Z,28.50
2023-04-23T08:17:43.686Z,28.30
2023-04-23T08:20:13.529Z,28.10
2023-04-23T08:22:41.606Z,28.00
2023-04-23T08:25:10.777Z,28.00
2023-04-23T08:27:38.860Z,27.80
2023-04-23T08:30:08.694Z,27.50
2023-04-23T08:32:36.815Z,27.50
2023-04-23T08:35:05.549Z,27.50
2023-04-23T08:37:35.181Z,27.70
2023-04-23T08:40:03.432Z,28.10
2023-04-23T08:42:39.280Z,28.20
2023-04-23T08:45:08.643Z,28.40
2023-04-23T08:47:40.494Z,28.50
2023-04-23T08:50:09.717Z,28.60
2023-04-23T08:52:41.867Z,28.70
2023-04-23T08:55:11.819Z,28.30
2023-04-23T08:57:41.847Z,28.20
2023-04-23T09:00:11.751Z,28.10
2023-04-23T09:02:42.305Z,28.20
2023-04-23T09:05:11.346Z,28.40
2023-04-23T09:07:41.536Z,28.50
2023-04-23T09:10:11.415Z,28.70
2023-04-23T09:12:41.512Z,28.90
2023-04-23T09:15:12.683Z,28.90
2023-04-23T09:17:43.175Z,29.10
2023-04-23T09:20:12.307Z,29.60
2023-04-23T09:22:46.037Z,30.10
2023-04-23T09:25:16.467Z,30.90
2023-04-23T09:27:45.108Z,31.60
2023-04-23T09:30:14.198Z,31.90
2023-04-23T09:32:43.578Z,31.80
2023-04-23T09:35:15.180Z,32.50
2023-04-23T09:37:48.510Z,33.30
2023-04-23T09:40:17.976Z,34.00
2023-04-23T09:42:49.914Z,34.50
2023-04-23T09:45:18.748Z,34.00
2023-04-23T09:47:52.086Z,33.60
2023-04-23T09:50:20.373Z,33.10
2023-04-23T09:52:55.452Z,32.80
2023-04-23T09:55:30.785Z,32.60
2023-04-23T09:57:59.864Z,32.90
2023-04-23T10:00:30.704Z,32.70
2023-04-23T10:03:01.328Z,32.80
2023-04-23T10:05:37.280Z,32.20
2023-04-23T10:08:16.818Z,31.60
2023-04-23T10:10:59.937Z,31.00
2023-04-23T10:13:36.843Z,30.50
2023-04-23T10:16:20.685Z,30.10
2023-04-23T10:18:53.150Z,29.90
2023-04-23T10:21:22.014Z,30.10
2023-04-23T10:23:52.946Z,30.00
2023-04-23T10:26:22.811Z,30.10
2023-04-23T10:28:54.815Z,30.00
2023-04-23T10:31:23.755Z,29.80
2023-04-23T10:33:59.142Z,29.60
2023-04-23T10:36:29.149Z,29.20
2023-04-23T10:39:01.348Z,29.00
2023-04-23T10:41:36.264Z,29.80
2023-04-23T10:44:05.360Z,30.10
2023-04-23T10:46:37.903Z,30.40
2023-04-23T10:49:09.039Z,30.60
2023-04-23T10:54:12.135Z,30.90
2023-04-23T10:56:40.810Z,31.10
2023-04-23T10:59:09.819Z,31.90
2023-04-23T11:01:37.966Z,33.10
2023-04-23T11:04:28.699Z,33.70
2023-04-23T11:06:58.726Z,33.50
2023-04-23T11:09:32.667Z,33.10
2023-04-23T11:12:01.852Z,32.90
2023-04-23T11:14:37.576Z,32.80
2023-04-23T11:17:06.816Z,32.80
2023-04-23T11:19:37.432Z,32.90
2023-04-23T11:22:08.315Z,33.20
2023-04-23T11:24:42.010Z,33.30
2023-04-23T11:27:11.919Z,33.60
2023-04-23T11:29:41.660Z,34.10
2023-04-23T11:32:12.973Z,34.50
2023-04-23T11:34:43.232Z,35.10
2023-04-23T11:37:12.697Z,35.90
2023-04-23T11:39:43.986Z,36.10
2023-04-23T11:42:13.304Z,36.30
2023-04-23T11:44:42.238Z,36.10
2023-04-23T11:47:11.785Z,35.80
2023-04-23T11:49:41.222Z,35.40
2023-04-23T11:52:10.318Z,35.10
2023-04-23T11:54:40.996Z,34.90
2023-04-23T11:57:11.153Z,34.70
2023-04-23T11:59:40.598Z,34.60
2023-04-23T12:02:08.943Z,34.60
2023-04-23T12:04:39.506Z,34.80
2023-04-23T12:07:19.692Z,34.40
2023-04-23T12:09:53.702Z,34.00
2023-04-23T12:12:23.158Z,34.10
2023-04-23T12:14:51.237Z,33.80
2023-04-23T12:17:19.416Z,33.30
2023-04-23T12:19:47.632Z,32.90
2023-04-23T12:22:15.766Z,32.90
2023-04-23T12:24:48.792Z,33.00
2023-04-23T12:27:20.497Z,32.60
2023-04-23T12:29:51.239Z,32.10
2023-04-23T12:32:23.070Z,31.70
2023-04-23T12:34:55.454Z,31.60
2023-04-23T12:37:27.205Z,31.50
2023-04-23T12:39:56.669Z,31.60
2023-04-23T12:42:25.216Z,31.60
2023-04-23T12:44:55.847Z,31.80
2023-04-23T12:47:24.405Z,31.80
2023-04-23T12:49:55.589Z,31.80
2023-04-23T12:52:23.875Z,31.70
2023-04-23T12:54:56.288Z,32.20
2023-04-23T12:57:24.861Z,32.00
2023-04-23T12:59:55.227Z,31.80
2023-04-23T13:02:24.347Z,31.60
2023-04-23T13:04:54.496Z,32.00
2023-04-23T13:07:22.777Z,32.60
2023-04-23T13:09:50.863Z,33.00
2023-04-23T13:12:18.987Z,33.30
2023-04-23T13:14:47.076Z,33.60
2023-04-23T13:17:16.550Z,33.80
2023-04-23T13:19:44.940Z,33.80
2023-04-23T13:22:13.063Z,33.60
2023-04-23T13:24:41.165Z,32.90
2023-04-23T13:27:09.461Z,32.20
2023-04-23T13:29:37.650Z,31.90
2023-04-23T13:32:05.911Z,31.80
2023-04-23T13:34:35.863Z,31.80
2023-04-23T13:37:05.832Z,31.80
2023-04-23T13:39:33.958Z,31.70
2023-04-23T13:42:09.083Z,31.70
2023-04-23T13:44:37.801Z,31.70
2023-04-23T13:47:06.067Z,31.80
2023-04-23T13:49:36.012Z,32.00
2023-04-23T13:52:06.747Z,32.70
2023-04-23T13:54:35.655Z,33.50
2023-04-23T13:57:04.100Z,33.90
2023-04-23T13:59:32.235Z,34.50
2023-04-23T14:02:00.320Z,35.10
2023-04-23T14:04:28.572Z,35.70
2023-04-23T14:06:58.059Z,36.20
2023-04-23T14:09:26.171Z,36.50
2023-04-23T14:11:54.278Z,36.90
2023-04-23T14:14:22.376Z,37.30
2023-04-23T14:16:50.633Z,37.80
2023-04-23T14:19:18.735Z,38.40
2023-04-23T14:21:46.918Z,39.20
2023-04-23T14:24:24.544Z,40.00
2023-04-23T14:26:52.687Z,40.50
2023-04-23T14:29:25.946Z,40.40
2023-04-23T14:31:54.128Z,40.40
2023-04-23T14:34:22.487Z,40.40
2023-04-23T14:36:52.990Z,40.40
2023-04-23T14:39:25.766Z,39.60
2023-04-23T14:41:54.369Z,38.80
2023-04-23T14:44:23.448Z,38.20
2023-04-23T14:46:51.612Z,37.80
2023-04-23T14:49:20.881Z,37.30
2023-04-23T14:51:50.855Z,36.80
2023-04-23T14:54:19.007Z,36.40
2023-04-23T14:56:48.478Z,36.10
2023-04-23T14:59:16.647Z,35.70
2023-04-23T15:01:44.998Z,35.50
2023-04-23T15:04:13.332Z,35.30
2023-04-23T15:06:41.602Z,35.10
2023-04-23T15:09:09.974Z,35.00
2023-04-23T15:11:38.921Z,34.90
2023-04-23T15:14:17.421Z,34.90
2023-04-23T15:16:49.562Z,34.90
2023-04-23T15:19:19.062Z,34.80
2023-04-23T15:21:47.693Z,34.60
2023-04-23T15:24:16.277Z,34.40
2023-04-23T15:26:45.830Z,34.30
2023-04-23T15:29:15.558Z,34.10
2023-04-23T15:31:43.731Z,34.10
2023-04-23T15:34:12.221Z,34.00
2023-04-23T15:36:40.616Z,34.00
2023-04-23T15:39:10.143Z,33.90
2023-04-23T15:41:40.644Z,33.80
2023-04-23T15:44:12.322Z,33.80
2023-04-23T15:46:41.983Z,33.70
2023-04-23T15:49:10.162Z,33.60
2023-04-23T15:51:38.425Z,33.50
2023-04-23T15:54:08.697Z,33.40
2023-04-23T15:56:37.497Z,33.20
2023-04-23T15:59:06.083Z,33.10
2023-04-23T16:01:34.361Z,33.00
2023-04-23T16:06:34.979Z,32.70
2023-04-23T16:09:06.733Z,32.70
2023-04-23T16:11:35.694Z,32.50
2023-04-23T16:14:04.611Z,32.40
2023-04-23T16:16:33.000Z,32.30
2023-04-23T16:19:02.047Z,32.10
2023-04-23T16:21:32.091Z,31.40
2023-04-23T16:24:00.433Z,30.80
2023-04-23T16:26:29.713Z,30.40
2023-04-23T16:31:29.130Z,29.80
2023-04-23T16:33:57.526Z,29.50
2023-04-23T16:36:25.711Z,29.40
2023-04-23T16:38:55.208Z,29.20
2023-04-23T16:41:23.085Z,29.20
2023-04-23T16:43:51.280Z,29.20
2023-04-23T16:46:19.575Z,29.20
2023-04-23T16:48:47.769Z,29.30
2023-04-23T16:51:16.035Z,29.30
2023-04-23T16:53:44.234Z,29.30
2023-04-23T16:56:13.888Z,29.30
2023-04-23T16:58:42.090Z,29.40
2023-04-23T17:01:10.895Z,29.30
2023-04-23T17:03:39.518Z,29.20
2023-04-23T17:06:11.680Z,29.20
2023-04-23T17:08:40.109Z,29.10
2023-04-23T17:11:08.567Z,29.10
2023-04-23T17:13:38.068Z,29.00
2023-04-23T17:16:06.044Z,28.90
2023-04-23T17:18:34.170Z,28.90
2023-04-23T17:21:02.327Z,28.80
2023-04-23T17:23:30.514Z,28.80
2023-04-23T17:25:58.622Z,28.80
2023-04-23T17:28:26.796Z,28.80
2023-04-23T17:30:56.396Z,28.80
2023-04-23T17:33:24.550Z,28.70
2023-04-23T17:35:53.325Z,28.60
2023-04-23T17:38:21.562Z,28.60
2023-04-23T17:40:50.356Z,28.50
2023-04-23T17:43:18.949Z,28.40
2023-04-23T17:45:47.662Z,28.40
2023-04-23T17:48:17.426Z,28.30
2023-04-23T17:50:46.983Z,28.30
2023-04-23T17:53:15.136Z,28.20
2023-04-23T17:55:43.218Z,28.20
2023-04-23T17:58:11.351Z,28.10
2023-04-23T18:00:41.812Z,28.10
2023-04-23T18:03:11.749Z,28.10
2023-04-23T18:05:41.449Z,28.00
2023-04-23T18:08:09.551Z,28.00
2023-04-23T18:10:37.716Z,28.00
2023-04-23T18:13:09.166Z,27.80
2023-04-23T18:15:37.310Z,27.60
2023-04-23T18:18:06.380Z,27.60
2023-04-23T18:20:35.579Z,27.60
2023-04-23T18:23:05.399Z,27.60
2023-04-23T18:25:33.656Z,27.60
2023-04-23T18:28:01.759Z,27.50
2023-04-23T18:30:30.241Z,27.50
2023-04-23T18:33:07.747Z,27.50
2023-04-23T18:35:36.032Z,27.50
2023-04-23T18:38:11.862Z,27.40
2023-04-23T18:40:40.483Z,27.30
2023-04-23T18:43:08.573Z,27.30
2023-04-23T18:45:36.874Z,27.20
2023-04-23T18:48:24.577Z,27.20
2023-04-23T18:50:57.860Z,27.20
2023-04-23T18:53:27.371Z,27.20
2023-04-23T18:55:55.460Z,27.10
2023-04-23T18:58:23.594Z,27.00
2023-04-23T19:00:51.834Z,27.00
2023-04-23T19:03:26.937Z,27.00
2023-04-23T19:05:55.624Z,26.90
2023-04-23T19:08:28.477Z,26.90
2023-04-23T19:10:58.379Z,26.90
2023-04-23T19:13:26.698Z,26.80
2023-04-23T19:15:55.147Z,26.80
2023-04-23T19:18:23.413Z,26.70
2023-04-23T19:20:52.496Z,26.70
2023-04-23T19:23:21.036Z,26.70
2023-04-23T19:25:49.205Z,26.70
2023-04-23T19:28:18.742Z,26.60
2023-04-23T19:30:46.871Z,26.60
2023-04-23T19:33:14.999Z,26.60
2023-04-23T19:35:43.171Z,26.50
2023-04-23T19:38:11.293Z,26.50
2023-04-23T19:40:39.415Z,26.50
2023-04-23T19:43:07.704Z,26.40
2023-04-23T19:45:37.475Z,26.40
2023-04-23T19:48:07.888Z,26.40
2023-04-23T19:50:36.245Z,26.30
2023-04-23T19:53:05.549Z,26.30
2023-04-23T19:55:33.732Z,26.30
2023-04-23T19:58:06.199Z,26.20
2023-04-23T20:00:40.018Z,26.10
2023-04-23T20:03:09.232Z,26.10
2023-04-23T20:05:37.580Z,26.10
2023-04-23T20:08:11.372Z,26.10
2023-04-23T20:10:39.543Z,26.10
2023-04-23T20:13:07.696Z,26.00
2023-04-23T20:15:37.551Z,26.00
2023-04-23T20:18:06.304Z,25.90
2023-04-23T20:20:35.762Z,25.90
2023-04-23T20:23:03.886Z,26.00
2023-04-23T20:25:32.085Z,26.00
2023-04-23T20:28:00.339Z,25.90
2023-04-23T20:30:28.430Z,25.90
2023-04-23T20:32:58.239Z,25.80
2023-04-23T20:35:28.631Z,25.80
2023-04-23T20:37:56.882Z,25.80
2023-04-23T20:40:25.148Z,25.70
2023-04-23T20:42:54.537Z,25.70
2023-04-23T20:45:23.371Z,25.60
2023-04-23T20:47:51.521Z,25.60
2023-04-23T20:50:21.382Z,25.60
2023-04-23T20:52:49.562Z,25.60
2023-04-23T20:55:17.628Z,25.60
2023-04-23T20:57:45.742Z,25.50
2023-04-23T21:00:14.807Z,25.50
2023-04-23T21:02:43.141Z,25.50
2023-04-23T21:05:13.443Z,25.40
2023-04-23T21:07:44.449Z,25.40
2023-04-23T21:10:12.889Z,25.40
2023-04-23T21:12:43.381Z,25.40
2023-04-23T21:15:13.285Z,25.30
2023-04-23T21:17:41.507Z,25.30
2023-04-23T21:20:10.731Z,25.30
2023-04-23T21:22:38.925Z,25.30
2023-04-23T21:25:08.921Z,25.30
2023-04-23T21:27:37.116Z,25.30
2023-04-23T21:30:11.179Z,25.30
2023-04-23T21:32:39.514Z,25.20
2023-04-23T21:35:08.566Z,25.20
2023-04-23T21:37:38.009Z,25.10
2023-04-23T21:40:10.462Z,25.10
2023-04-23T21:42:38.839Z,25.10
2023-04-23T21:45:08.679Z,25.10
2023-04-23T21:47:36.820Z,25.10
2023-04-23T21:50:05.324Z,25.00
2023-04-23T21:52:33.819Z,25.00
2023-04-23T21:55:02.242Z,25.00
2023-04-23T21:57:31.745Z,25.00
2023-04-23T21:59:59.899Z,24.90
2023-04-23T22:02:28.355Z,24.90
2023-04-23T22:04:56.542Z,24.90
2023-04-23T22:07:26.794Z,24.80
2023-04-23T22:09:57.136Z,24.80
2023-04-23T22:12:25.260Z,24.80
2023-04-23T22:14:54.744Z,24.80
2023-04-23T22:17:26.293Z,24.70
2023-04-23T22:19:54.899Z,24.70
2023-04-23T22:22:23.013Z,24.70
2023-04-23T22:24:51.292Z,24.70
2023-04-23T22:27:19.458Z,24.70
2023-04-23T22:29:47.555Z,24.60
2023-04-23T22:32:17.048Z,24.60
2023-04-23T22:34:45.325Z,24.60
2023-04-23T22:37:13.545Z,24.50
2023-04-23T22:39:41.843Z,24.50
2023-04-23T22:42:10.222Z,24.50
2023-04-23T22:44:38.958Z,24.50
2023-04-23T22:47:07.311Z,24.50
2023-04-23T22:49:37.051Z,24.50
2023-04-23T22:52:05.065Z,24.40
2023-04-23T22:54:33.164Z,24.40
2023-04-23T22:57:02.152Z,24.40
2023-04-23T22:59:31.185Z,24.40
2023-04-23T23:01:59.429Z,24.40
2023-04-23T23:04:27.639Z,24.30
2023-04-23T23:06:57.239Z,24.30
2023-04-23T23:09:25.477Z,24.30
2023-04-23T23:11:53.573Z,24.20
2023-04-23T23:14:21.864Z,24.20
2023-04-23T23:16:49.941Z,24.20
2023-04-23T23:19:18.052Z,24.20
2023-04-23T23:21:46.153Z,24.20
2023-04-23T23:24:15.732Z,24.20
2023-04-23T23:26:43.812Z,24.20
2023-04-23T23:29:11.963Z,24.20
2023-04-23T23:31:40.234Z,24.20
2023-04-23T23:34:08.830Z,24.20
2023-04-23T23:36:37.066Z,24.20
2023-04-23T23:39:06.814Z,24.20
2023-04-23T23:41:36.404Z,24.20
2023-04-23T23:44:04.504Z,24.10
2023-04-23T23:46:32.627Z,24.10
2023-04-23T23:49:00.777Z,24.10
2023-04-23T23:51:29.162Z,24.10
2023-04-23T23:53:57.287Z,24.00
2023-04-23T23:56:25.430Z,24.00
2023-04-23T23:58:55.062Z,24.00
